createdAt,value
2019-02-14T00:00:24.078Z,20.25
2019-02-14T00:02:56.947Z,24.65
2019-02-14T00:05:28.303Z,21.73
2019-02-14T00:07:59.641Z,26.97
2019-02-14T00:10:31.081Z,25.48
2019-02-14T00:13:06.844Z,24.12
2019-02-14T00:15:38.082Z,22.02
2019-02-14T00:18:09.448Z,24.95
2019-02-14T00:20:40.990Z,20.75
2019-02-14T00:23:12.344Z,23.90
2019-02-14T00:25:43.453Z,20.23
2019-02-14T00:28:14.712Z,24.63
2019-02-14T00:30:46.069Z,21.35
2019-02-14T00:33:17.650Z,25.08
2019-02-14T00:35:49.122Z,28.90
2019-02-14T00:38:20.383Z,20.23
2019-02-14T00:40:51.710Z,27.32
2019-02-14T00:43:22.912Z,30.02
2019-02-14T00:45:55.084Z,22.67
2019-02-14T00:48:26.187Z,33.28
2019-02-14T00:50:57.510Z,29.82
2019-02-14T00:53:29.936Z,25.62
2019-02-14T00:56:01.104Z,26.37
2019-02-14T00:58:32.476Z,21.50
2019-02-14T01:01:03.795Z,20.50
2019-02-14T01:03:35.116Z,20.23
2019-02-14T01:06:06.487Z,25.37
2019-02-14T01:08:37.918Z,22.27
2019-02-14T01:11:09.205Z,24.43
2019-02-14T01:13:40.402Z,22.15
2019-02-14T01:16:11.735Z,29.48
2019-02-14T01:18:42.954Z,18.62
2019-02-14T01:21:14.194Z,20.68
2019-02-14T01:23:45.473Z,22.22
2019-02-14T01:26:18.961Z,20.23
2019-02-14T01:28:50.567Z,21.80
2019-02-14T01:31:21.801Z,26.85
2019-02-14T01:33:53.089Z,22.90
2019-02-14T01:36:24.387Z,31.62
2019-02-14T01:38:55.752Z,21.25
2019-02-14T01:41:27.238Z,19.02
2019-02-14T01:43:59.052Z,24.67
2019-02-14T01:46:30.378Z,20.15
2019-02-14T01:49:02.024Z,23.38
2019-02-14T01:51:34.432Z,23.40
2019-02-14T01:54:05.745Z,24.37
2019-02-14T01:56:37.180Z,20.80
2019-02-14T01:59:08.445Z,23.73
2019-02-14T02:01:39.786Z,20.95
2019-02-14T02:04:10.998Z,19.42
2019-02-14T02:06:42.433Z,16.30
2019-02-14T02:09:13.847Z,22.52
2019-02-14T02:11:45.180Z,25.10
2019-02-14T02:14:16.600Z,27.42
2019-02-14T02:16:48.023Z,17.45
2019-02-14T02:19:19.676Z,24.23
2019-02-14T02:21:51.148Z,22.45
2019-02-14T02:24:22.445Z,21.35
2019-02-14T02:26:53.917Z,23.32
2019-02-14T02:29:26.210Z,22.67
2019-02-14T02:31:57.415Z,23.07
2019-02-14T02:34:28.737Z,20.65
2019-02-14T02:37:00.132Z,22.20
2019-02-14T02:39:31.468Z,19.73
2019-02-14T02:42:02.659Z,23.80
2019-02-14T02:44:34.326Z,17.32
2019-02-14T02:47:05.613Z,18.27
2019-02-14T02:49:36.977Z,23.20
2019-02-14T02:52:08.544Z,22.30
2019-02-14T02:54:39.962Z,16.70
2019-02-14T02:57:11.403Z,20.23
2019-02-14T02:59:42.914Z,20.12
2019-02-14T03:02:14.406Z,21.85
2019-02-14T03:04:45.997Z,23.05
2019-02-14T03:07:17.411Z,20.92
2019-02-14T03:09:48.859Z,20.00
2019-02-14T03:12:20.221Z,18.10
2019-02-14T03:14:51.394Z,15.93
2019-02-14T03:17:22.730Z,22.67
2019-02-14T03:19:54.118Z,17.80
2019-02-14T03:22:45.525Z,23.15
2019-02-14T03:25:17.993Z,21.30
2019-02-14T03:27:49.281Z,26.25
2019-02-14T03:33:24.029Z,20.80
2019-02-14T03:35:55.534Z,21.02
2019-02-14T03:38:26.919Z,24.37
2019-02-14T03:40:58.084Z,22.30
2019-02-14T03:43:29.490Z,22.05
2019-02-14T03:46:02.948Z,23.15
2019-02-14T03:48:34.177Z,25.25
2019-02-14T03:51:05.483Z,21.87
2019-02-14T03:53:36.978Z,24.52
2019-02-14T03:56:08.265Z,18.48
2019-02-14T03:58:39.581Z,20.75
2019-02-14T04:01:10.780Z,20.82
2019-02-14T04:03:42.333Z,19.07
2019-02-14T04:06:27.440Z,25.08
2019-02-14T04:08:55.894Z,28.35
2019-02-14T04:11:27.062Z,24.25
2019-02-14T04:13:58.532Z,24.90
2019-02-14T04:16:29.943Z,28.23
2019-02-14T04:19:01.116Z,25.10
2019-02-14T04:21:32.470Z,30.40
2019-02-14T04:24:03.834Z,25.27
2019-02-14T04:26:35.210Z,27.37
2019-02-14T04:29:06.549Z,26.45
2019-02-14T04:31:37.775Z,26.15
2019-02-14T04:34:09.159Z,26.70
2019-02-14T04:36:40.532Z,26.45
2019-02-14T04:39:11.838Z,26.05
2019-02-14T04:41:43.079Z,24.50
2019-02-14T04:44:14.291Z,20.50
2019-02-14T04:46:46.656Z,26.20
2019-02-14T04:49:17.742Z,23.27
2019-02-14T04:51:49.089Z,32.83
2019-02-14T04:54:20.304Z,27.50
2019-02-14T04:56:51.894Z,21.90
2019-02-14T04:59:23.187Z,30.52
2019-02-14T05:01:54.508Z,27.15
2019-02-14T05:04:25.961Z,29.50
2019-02-14T05:06:57.357Z,27.90
2019-02-14T05:09:28.842Z,24.98
2019-02-14T05:12:00.310Z,32.50
2019-02-14T05:14:31.638Z,27.70
2019-02-14T05:17:03.140Z,21.23
2019-02-14T05:19:34.572Z,25.80
2019-02-14T05:22:05.887Z,27.82
2019-02-14T05:24:37.254Z,23.07
2019-02-14T05:27:08.546Z,22.75
2019-02-14T05:29:39.771Z,25.12
2019-02-14T05:32:11.080Z,24.85
2019-02-14T05:34:42.322Z,23.57
2019-02-14T05:37:14.312Z,24.25
2019-02-14T05:39:45.633Z,26.42
2019-02-14T05:42:16.939Z,36.60
2019-02-14T05:44:48.359Z,27.02
2019-02-14T05:47:19.747Z,30.25
2019-02-14T05:49:51.033Z,26.02
2019-02-14T05:52:22.465Z,27.37
2019-02-14T05:54:53.937Z,20.60
2019-02-14T05:57:25.234Z,22.42
2019-02-14T05:59:56.582Z,19.92
2019-02-14T06:02:28.631Z,20.10
2019-02-14T06:04:59.796Z,25.68
2019-02-14T06:07:31.065Z,23.15
2019-02-14T06:10:02.383Z,23.92
2019-02-14T06:12:33.749Z,21.57
2019-02-14T06:15:05.579Z,23.85
2019-02-14T06:17:37.003Z,26.75
2019-02-14T06:20:09.902Z,28.20
2019-02-14T06:22:42.594Z,25.85
2019-02-14T06:25:16.813Z,21.07
2019-02-14T06:27:51.002Z,27.25
2019-02-14T06:30:25.306Z,26.30
2019-02-14T06:32:59.184Z,16.73
2019-02-14T06:35:33.297Z,21.97
2019-02-14T06:38:07.222Z,21.25
2019-02-14T06:40:41.210Z,16.32
2019-02-14T06:43:12.689Z,25.60
2019-02-14T06:45:44.345Z,20.80
2019-02-14T06:48:15.504Z,17.15
2019-02-14T06:50:50.434Z,17.70
2019-02-14T06:53:24.836Z,17.82
2019-02-14T06:55:58.524Z,21.07
2019-02-14T06:58:32.630Z,22.62
2019-02-14T07:01:03.497Z,15.10
2019-02-14T07:03:34.863Z,21.33
2019-02-14T07:06:08.432Z,21.85
2019-02-14T07:08:41.741Z,23.07
2019-02-14T07:11:13.325Z,18.15
2019-02-14T07:13:44.714Z,21.85
2019-02-14T07:16:19.388Z,21.62
2019-02-14T07:18:50.743Z,21.45
2019-02-14T07:21:22.145Z,26.77
2019-02-14T07:23:53.527Z,17.37
2019-02-14T07:26:24.934Z,20.70
2019-02-14T07:28:56.267Z,17.98
2019-02-14T07:31:27.773Z,49.65
2019-02-14T07:33:59.182Z,32.08
2019-02-14T07:36:30.539Z,26.57
2019-02-14T07:39:02.070Z,23.20
2019-02-14T07:41:34.647Z,21.37
2019-02-14T07:44:06.240Z,19.65
2019-02-14T07:46:37.829Z,26.45
2019-02-14T07:49:09.132Z,21.95
2019-02-14T07:51:40.526Z,20.57
2019-02-14T07:54:12.028Z,19.10
2019-02-14T07:56:43.518Z,20.50
2019-02-14T07:59:14.736Z,19.40
2019-02-14T08:01:46.002Z,25.27
2019-02-14T08:04:17.314Z,20.88
2019-02-14T08:06:48.389Z,21.17
2019-02-14T08:09:28.360Z,22.17
2019-02-14T08:11:59.629Z,21.93
2019-02-14T08:14:32.042Z,23.45
2019-02-14T08:17:03.514Z,17.02
2019-02-14T08:19:34.742Z,22.40
2019-02-14T08:22:06.235Z,24.25
2019-02-14T08:24:37.533Z,25.27
2019-02-14T08:27:08.892Z,23.90
2019-02-14T08:29:40.012Z,17.23
2019-02-14T08:32:11.491Z,28.35
2019-02-14T08:34:42.979Z,23.30
2019-02-14T08:37:16.434Z,22.48
2019-02-14T08:39:47.696Z,22.90
2019-02-14T08:42:19.065Z,18.32
2019-02-14T08:44:56.004Z,24.35
2019-02-14T08:47:29.596Z,22.58
2019-02-14T08:50:01.145Z,28.83
2019-02-14T08:52:32.631Z,29.63
2019-02-14T08:55:04.529Z,21.70
2019-02-14T08:57:35.964Z,25.90
2019-02-14T09:00:09.335Z,19.98
2019-02-14T09:02:40.849Z,25.72
2019-02-14T09:05:12.104Z,20.50
2019-02-14T09:07:43.562Z,22.10
2019-02-14T09:10:15.073Z,20.17
2019-02-14T09:12:47.482Z,19.45
2019-02-14T09:15:18.944Z,24.95
2019-02-14T09:17:50.229Z,20.48
2019-02-14T09:20:21.655Z,18.30
2019-02-14T09:22:52.975Z,19.45
2019-02-14T09:25:24.357Z,21.33
2019-02-14T09:27:55.654Z,23.18
2019-02-14T09:30:26.990Z,19.20
2019-02-14T09:32:58.442Z,19.02
2019-02-14T09:35:29.712Z,17.48
2019-02-14T09:38:03.364Z,19.17
2019-02-14T09:40:34.427Z,21.07
2019-02-14T09:43:05.762Z,19.02
2019-02-14T09:45:37.122Z,22.20
2019-02-14T09:48:09.211Z,16.97
2019-02-14T09:50:40.513Z,21.70
2019-02-14T09:53:11.956Z,19.65
2019-02-14T09:55:43.351Z,18.92
2019-02-14T09:58:14.664Z,18.92
2019-02-14T10:00:46.016Z,20.43
2019-02-14T10:03:17.188Z,19.52
2019-02-14T10:05:49.314Z,25.70
2019-02-14T10:08:20.584Z,20.57
2019-02-14T10:10:51.915Z,22.60
2019-02-14T10:13:24.180Z,25.10
2019-02-14T10:15:55.551Z,18.70
2019-02-14T10:18:27.018Z,22.15
2019-02-14T10:20:58.249Z,22.00
2019-02-14T10:23:29.649Z,22.77
2019-02-14T10:26:01.172Z,23.75
2019-02-14T10:28:32.614Z,20.60
2019-02-14T10:31:03.988Z,21.23
2019-02-14T10:33:35.274Z,23.20
2019-02-14T10:36:06.789Z,21.90
2019-02-14T10:38:38.095Z,20.32
2019-02-14T10:41:09.513Z,15.85
2019-02-14T10:43:48.644Z,17.42
2019-02-14T10:46:14.099Z,19.77
2019-02-14T10:48:45.350Z,18.67
2019-02-14T10:51:16.710Z,19.48
2019-02-14T10:53:48.008Z,16.80
2019-02-14T10:56:19.462Z,24.05
2019-02-14T10:58:50.726Z,18.82
2019-02-14T11:01:22.085Z,15.25
2019-02-14T11:03:53.596Z,15.13
2019-02-14T11:06:25.039Z,16.90
2019-02-14T11:08:56.409Z,13.55
2019-02-14T11:11:27.735Z,15.58
2019-02-14T11:13:59.153Z,16.20
2019-02-14T11:16:30.413Z,16.67
2019-02-14T11:19:01.863Z,17.95
2019-02-14T11:21:33.169Z,10.70
2019-02-14T11:24:04.464Z,12.90
2019-02-14T11:26:35.568Z,15.93
2019-02-14T11:29:06.917Z,12.73
2019-02-14T11:31:38.241Z,18.50
2019-02-14T11:34:09.549Z,15.48
2019-02-14T11:36:40.733Z,16.42
2019-02-14T11:39:12.134Z,18.05
2019-02-14T11:41:43.393Z,16.12
2019-02-14T11:44:14.728Z,18.73
2019-02-14T11:46:51.571Z,14.30
2019-02-14T11:49:19.028Z,16.55
2019-02-14T11:51:50.324Z,11.97
2019-02-14T11:54:21.837Z,21.37
2019-02-14T11:56:54.486Z,17.48
2019-02-14T11:59:25.759Z,16.05
2019-02-14T12:01:57.192Z,13.98
2019-02-14T12:04:28.592Z,13.30
2019-02-14T12:07:00.033Z,12.70
2019-02-14T12:09:31.378Z,12.18
2019-02-14T12:12:03.012Z,16.23
2019-02-14T12:14:34.359Z,17.57
2019-02-14T12:17:05.811Z,13.98
2019-02-14T12:19:37.222Z,11.40
2019-02-14T12:22:11.435Z,20.37
2019-02-14T12:24:43.486Z,11.95
2019-02-14T12:27:15.551Z,12.07
2019-02-14T12:29:46.924Z,19.27
2019-02-14T12:32:18.199Z,12.65
2019-02-14T12:34:49.451Z,11.10
2019-02-14T12:37:20.715Z,15.85
2019-02-14T12:39:52.022Z,22.35
2019-02-14T12:42:23.460Z,17.23
2019-02-14T12:44:54.698Z,11.93
2019-02-14T12:47:26.043Z,12.53
2019-02-14T12:49:57.567Z,12.93
2019-02-14T12:52:28.804Z,10.55
2019-02-14T12:55:00.021Z,15.18
2019-02-14T12:57:31.723Z,12.68
2019-02-14T13:00:03.076Z,14.47
2019-02-14T13:02:35.842Z,13.30
2019-02-14T13:05:08.091Z,10.60
2019-02-14T13:07:40.427Z,13.28
2019-02-14T13:10:12.588Z,12.35
2019-02-14T13:12:43.996Z,12.88
2019-02-14T13:15:18.243Z,14.35
2019-02-14T13:17:49.666Z,11.88
2019-02-14T13:20:20.986Z,10.23
2019-02-14T13:22:52.234Z,11.08
2019-02-14T13:25:23.627Z,10.13
2019-02-14T13:27:55.376Z,9.65
2019-02-14T13:30:26.835Z,11.20
2019-02-14T13:32:58.180Z,14.15
2019-02-14T13:35:29.779Z,11.57
2019-02-14T13:38:01.477Z,11.28
2019-02-14T13:40:35.791Z,11.53
2019-02-14T13:43:07.047Z,10.50
2019-02-14T13:45:40.462Z,9.08
2019-02-14T13:48:12.005Z,11.85
2019-02-14T13:50:43.422Z,12.68
2019-02-14T13:53:14.923Z,12.30
2019-02-14T13:55:46.358Z,10.25
2019-02-14T13:58:17.742Z,11.60
2019-02-14T14:00:49.078Z,14.70
2019-02-14T14:03:20.706Z,16.05
2019-02-14T14:05:53.099Z,12.20
2019-02-14T14:08:24.532Z,10.72
2019-02-14T14:10:55.935Z,13.68
2019-02-14T14:13:27.235Z,10.00
2019-02-14T14:15:58.568Z,12.37
2019-02-14T14:18:30.099Z,9.93
2019-02-14T14:21:01.637Z,9.40
2019-02-14T14:23:32.845Z,12.47
2019-02-14T14:26:04.299Z,10.95
2019-02-14T14:28:35.782Z,10.10
2019-02-14T14:31:09.877Z,10.40
2019-02-14T14:33:42.659Z,11.48
2019-02-14T14:36:14.056Z,7.40
2019-02-14T14:38:46.616Z,11.78
2019-02-14T14:41:18.175Z,12.25
2019-02-14T14:44:26.404Z,12.65
2019-02-14T14:47:00.668Z,12.50
2019-02-14T14:49:32.025Z,10.38
2019-02-14T14:52:03.234Z,9.20
2019-02-14T14:54:34.697Z,15.00
2019-02-14T14:57:06.100Z,13.22
2019-02-14T14:59:37.485Z,12.00
2019-02-14T15:02:34.060Z,13.50
2019-02-14T15:05:05.545Z,9.75
2019-02-14T15:07:36.980Z,15.72
2019-02-14T15:10:08.342Z,12.58
2019-02-14T15:12:39.842Z,12.98
2019-02-14T15:15:11.267Z,11.53
2019-02-14T15:17:42.631Z,12.43
2019-02-14T15:20:14.122Z,15.10
2019-02-14T15:22:45.384Z,13.13
2019-02-14T15:25:16.651Z,12.00
2019-02-14T15:27:48.043Z,12.23
2019-02-14T15:30:19.431Z,11.88
2019-02-14T15:32:50.586Z,11.57
2019-02-14T15:35:21.860Z,15.13
2019-02-14T15:38:47.238Z,9.35
2019-02-14T15:41:18.733Z,13.50
2019-02-14T15:43:50.103Z,13.98
2019-02-14T15:46:21.511Z,10.10
2019-02-14T15:48:52.813Z,12.00
2019-02-14T15:51:24.134Z,13.58
2019-02-14T15:53:55.365Z,12.05
2019-02-14T15:56:27.359Z,15.80
2019-02-14T15:59:00.243Z,13.70
2019-02-14T16:01:31.757Z,13.78
2019-02-14T16:04:07.367Z,15.90
2019-02-14T16:06:45.869Z,10.70
2019-02-14T16:09:26.460Z,12.88
2019-02-14T16:11:59.733Z,12.10
2019-02-14T16:14:31.601Z,12.70
2019-02-14T16:17:03.104Z,14.35
2019-02-14T16:19:36.457Z,12.78
2019-02-14T16:22:07.941Z,12.85
2019-02-14T16:24:41.294Z,14.25
2019-02-14T16:27:15.746Z,14.07
2019-02-14T16:29:49.278Z,15.38
2019-02-14T16:32:21.542Z,14.13
2019-02-14T16:34:53.515Z,13.93
2019-02-14T16:37:25.064Z,12.58
2019-02-14T16:39:58.452Z,16.45
2019-02-14T16:42:30.069Z,13.85
2019-02-14T16:45:01.491Z,13.88
2019-02-14T16:47:35.442Z,14.58
2019-02-14T16:50:08.135Z,14.40
2019-02-14T16:52:39.773Z,16.20
2019-02-14T16:55:12.277Z,11.53
2019-02-14T16:57:45.312Z,14.95
2019-02-14T17:00:18.871Z,19.70
2019-02-14T17:02:50.160Z,20.55
2019-02-14T17:05:21.776Z,17.65
2019-02-14T17:07:55.919Z,25.27
2019-02-14T17:10:27.225Z,23.73
2019-02-14T17:13:02.191Z,19.10
2019-02-14T17:15:33.615Z,17.60
2019-02-14T17:18:05.100Z,22.32
2019-02-14T17:20:36.421Z,22.65
2019-02-14T17:23:07.684Z,22.52
2019-02-14T17:25:39.959Z,24.37
2019-02-14T17:28:11.061Z,18.80
2019-02-14T17:30:42.477Z,23.85
2019-02-14T17:33:13.614Z,29.45
2019-02-14T17:35:45.921Z,22.80
2019-02-14T17:38:17.379Z,20.62
2019-02-14T17:40:48.840Z,21.45
2019-02-14T17:43:20.282Z,22.25
2019-02-14T17:45:52.638Z,21.42
2019-02-14T17:48:23.893Z,27.58
2019-02-14T17:50:55.350Z,25.00
2019-02-14T17:53:26.653Z,29.02
2019-02-14T17:55:58.038Z,33.55
2019-02-14T18:00:52.718Z,19.15
2019-02-14T18:03:36.888Z,30.75
2019-02-14T18:06:28.018Z,26.57
2019-02-14T18:09:16.262Z,38.45
2019-02-14T18:12:07.536Z,39.50
2019-02-14T18:14:52.106Z,53.40
2019-02-14T18:17:58.586Z,39.42
2019-02-14T18:20:48.814Z,63.73
2019-02-14T18:23:40.055Z,68.90
2019-02-14T18:26:23.813Z,56.37
2019-02-14T18:29:14.934Z,61.13
2019-02-14T18:31:58.786Z,75.00
2019-02-14T18:34:30.986Z,64.77
2019-02-14T18:37:15.069Z,61.95
2019-02-14T18:43:16.827Z,53.28
2019-02-14T18:46:08.051Z,53.60
2019-02-14T18:48:52.271Z,38.25
2019-02-14T18:55:11.283Z,39.23
2019-02-14T18:57:55.123Z,40.60
2019-02-14T19:00:39.279Z,39.40
2019-02-14T19:03:30.542Z,33.48
2019-02-14T19:06:15.738Z,37.25
2019-02-14T19:08:59.876Z,36.98
2019-02-14T19:15:20.030Z,36.70
2019-02-14T19:18:08.182Z,37.88
2019-02-14T19:21:20.819Z,34.63
2019-02-14T19:24:07.456Z,34.13
2019-02-14T19:26:58.885Z,36.15
2019-02-14T19:29:42.825Z,38.17
2019-02-14T19:32:34.094Z,38.35
2019-02-14T19:35:23.020Z,35.50
2019-02-14T19:41:29.702Z,32.25
2019-02-14T19:44:52.615Z,32.53
2019-02-14T19:47:44.661Z,25.43
2019-02-14T19:50:35.973Z,28.83
2019-02-14T19:53:19.511Z,32.03
2019-02-14T19:56:10.683Z,30.52
2019-02-14T19:58:54.476Z,33.83
2019-02-14T20:01:45.610Z,37.80
2019-02-14T20:04:30.059Z,28.75
2019-02-14T20:10:31.137Z,31.33
2019-02-14T20:13:25.341Z,34.20
2019-02-14T20:16:12.435Z,26.97
2019-02-14T20:19:05.331Z,29.18
2019-02-14T20:21:50.612Z,28.35
2019-02-14T20:24:42.000Z,30.88
2019-02-14T20:27:16.494Z,31.27
2019-02-14T20:30:13.197Z,33.35
2019-02-14T20:33:04.389Z,30.55
2019-02-14T20:36:01.496Z,28.70
2019-02-14T20:38:52.824Z,34.53
2019-02-14T20:41:45.045Z,26.73
2019-02-14T20:44:29.776Z,30.70
2019-02-14T20:47:02.178Z,35.33
2019-02-14T20:50:09.840Z,36.53
2019-02-14T20:52:58.799Z,36.77
2019-02-14T20:55:51.144Z,28.75
2019-02-14T20:58:34.853Z,27.75
2019-02-14T21:01:18.811Z,31.62
2019-02-14T21:04:10.073Z,36.65
2019-02-14T21:06:41.956Z,31.37
2019-02-14T21:09:33.127Z,25.37
2019-02-14T21:12:16.780Z,33.48
2019-02-14T21:15:08.713Z,29.15
2019-02-14T21:17:51.212Z,31.07
2019-02-14T21:20:35.483Z,33.28
2019-02-14T21:23:26.832Z,28.55
2019-02-14T21:26:12.623Z,30.35
2019-02-14T21:29:00.365Z,32.88
2019-02-14T21:31:53.444Z,31.37
2019-02-14T21:34:37.338Z,32.75
2019-02-14T21:37:28.657Z,31.23
2019-02-14T21:40:12.252Z,31.48
2019-02-14T21:43:03.798Z,33.30
2019-02-14T21:45:47.849Z,31.10
2019-02-14T21:48:32.368Z,30.97
2019-02-14T21:51:23.677Z,31.40
2019-02-14T21:54:07.874Z,28.20
2019-02-14T21:56:59.142Z,35.35
2019-02-14T21:59:43.271Z,32.40
2019-02-14T22:02:34.579Z,29.95
2019-02-14T22:05:07.432Z,28.40
2019-02-14T22:07:53.315Z,31.80
2019-02-14T22:10:25.534Z,29.80
2019-02-14T22:13:09.391Z,29.37
2019-02-14T22:16:00.691Z,33.40
2019-02-14T22:18:44.527Z,31.85
2019-02-14T22:21:35.632Z,29.05
2019-02-14T22:24:20.547Z,29.25
2019-02-14T22:27:11.798Z,29.98
2019-02-14T22:29:56.132Z,24.90
2019-02-14T22:32:47.274Z,32.60
2019-02-14T22:35:30.756Z,30.95
2019-02-14T22:38:21.925Z,32.05
2019-02-14T22:41:06.533Z,30.32
2019-02-14T22:43:57.729Z,34.78
2019-02-14T22:46:29.736Z,38.67
2019-02-14T22:49:01.992Z,33.08
2019-02-14T22:51:53.072Z,27.55
2019-02-14T22:54:38.023Z,26.50
2019-02-14T22:57:22.859Z,29.65
2019-02-14T23:03:39.530Z,28.67
2019-02-14T23:06:23.218Z,28.92
2019-02-14T23:09:14.288Z,28.32
2019-02-14T23:11:57.793Z,33.45
2019-02-14T23:14:48.967Z,33.33
2019-02-14T23:17:32.779Z,29.90
2019-02-14T23:20:05.160Z,28.17
2019-02-14T23:22:37.505Z,33.35
2019-02-14T23:25:21.364Z,29.85
2019-02-14T23:28:12.416Z,29.65
2019-02-14T23:30:44.327Z,25.50
2019-02-14T23:33:16.311Z,34.55
2019-02-14T23:35:48.290Z,28.45
2019-02-14T23:38:20.506Z,28.65
2019-02-14T23:41:05.205Z,28.17
2019-02-14T23:43:56.334Z,27.73
2019-02-14T23:46:40.602Z,28.07
2019-02-14T23:49:24.133Z,40.08
2019-02-14T23:52:15.213Z,29.00
2019-02-14T23:54:59.419Z,36.93
2019-02-14T23:57:50.558Z,28.52
